sensor_id;sensor_type;location;lat;lon;timestamp;temperature;humidity
418;DHT22;49;48.530;9.200;2023-03-11T00:00:11;7.50;29.20
418;DHT22;49;48.530;9.200;2023-03-11T00:02:41;7.50;39.70
418;DHT22;49;48.530;9.200;2023-03-11T00:05:12;7.40;36.20
418;DHT22;49;48.530;9.200;2023-03-11T00:07:39;7.30;27.70
418;DHT22;49;48.530;9.200;2023-03-11T00:10:07;7.40;31.30
418;DHT22;49;48.530;9.200;2023-03-11T00:12:34;7.50;28.70
418;DHT22;49;48.530;9.200;2023-03-11T00:15:01;7.90;31.30
418;DHT22;49;48.530;9.200;2023-03-11T00:17:28;7.80;35.30
418;DHT22;49;48.530;9.200;2023-03-11T00:19:55;7.90;27.70
418;DHT22;49;48.530;9.200;2023-03-11T00:22:24;7.80;27.00
418;DHT22;49;48.530;9.200;2023-03-11T00:24:50;7.70;29.20
418;DHT22;49;48.530;9.200;2023-03-11T00:27:17;8.20;27.60
418;DHT22;49;48.530;9.200;2023-03-11T00:29:45;8.30;34.50
418;DHT22;49;48.530;9.200;2023-03-11T00:32:12;8.50;28.40
418;DHT22;49;48.530;9.200;2023-03-11T00:34:38;8.60;32.00
418;DHT22;49;48.530;9.200;2023-03-11T00:37:05;8.70;27.40
418;DHT22;49;48.530;9.200;2023-03-11T00:39:34;8.90;31.10
418;DHT22;49;48.530;9.200;2023-03-11T00:42:01;9.20;30.90
418;DHT22;49;48.530;9.200;2023-03-11T00:44:28;9.00;31.30
418;DHT22;49;48.530;9.200;2023-03-11T00:46:55;9.20;29.30
418;DHT22;49;48.530;9.200;2023-03-11T00:49:22;9.20;24.20
418;DHT22;49;48.530;9.200;2023-03-11T00:51:49;9.50;28.60
418;DHT22;49;48.530;9.200;2023-03-11T00:54:15;9.40;27.00
418;DHT22;49;48.530;9.200;2023-03-11T00:56:44;9.70;28.70
418;DHT22;49;48.530;9.200;2023-03-11T00:59:11;9.80;25.80
418;DHT22;49;48.530;9.200;2023-03-11T01:01:38;9.70;29.50
418;DHT22;49;48.530;9.200;2023-03-11T01:04:05;9.10;27.40
418;DHT22;49;48.530;9.200;2023-03-11T01:06:32;9.10;25.70
418;DHT22;49;48.530;9.200;2023-03-11T01:08:59;9.00;26.70
418;DHT22;49;48.530;9.200;2023-03-11T01:11:26;8.60;24.00
418;DHT22;49;48.530;9.200;2023-03-11T01:13:54;8.60;34.00
418;DHT22;49;48.530;9.200;2023-03-11T01:16:21;8.50;26.80
418;DHT22;49;48.530;9.200;2023-03-11T01:18:48;8.70;30.90
418;DHT22;49;48.530;9.200;2023-03-11T01:21:15;8.70;25.50
418;DHT22;49;48.530;9.200;2023-03-11T01:23:42;9.00;28.40
418;DHT22;49;48.530;9.200;2023-03-11T01:26:09;9.20;29.60
418;DHT22;49;48.530;9.200;2023-03-11T01:28:36;9.40;27.00
418;DHT22;49;48.530;9.200;2023-03-11T01:31:04;9.70;25.20
418;DHT22;49;48.530;9.200;2023-03-11T01:33:31;9.70;29.30
418;DHT22;49;48.530;9.200;2023-03-11T01:35:58;9.00;28.80
418;DHT22;49;48.530;9.200;2023-03-11T01:38:25;9.00;28.70
418;DHT22;49;48.530;9.200;2023-03-11T01:40:52;9.30;30.00
418;DHT22;49;48.530;9.200;2023-03-11T01:43:39;9.40;27.00
418;DHT22;49;48.530;9.200;2023-03-11T01:46:14;9.60;26.80
418;DHT22;49;48.530;9.200;2023-03-11T01:48:45;9.70;26.20
418;DHT22;49;48.530;9.200;2023-03-11T01:51:13;9.30;24.60
418;DHT22;49;48.530;9.200;2023-03-11T01:53:41;9.40;26.70
418;DHT22;49;48.530;9.200;2023-03-11T01:56:08;9.70;25.00
418;DHT22;49;48.530;9.200;2023-03-11T01:58:38;9.70;26.80
418;DHT22;49;48.530;9.200;2023-03-11T02:01:09;9.50;29.60
418;DHT22;49;48.530;9.200;2023-03-11T02:03:39;9.80;27.10
418;DHT22;49;48.530;9.200;2023-03-11T02:06:09;9.60;26.00
418;DHT22;49;48.530;9.200;2023-03-11T02:08:36;9.30;27.00
418;DHT22;49;48.530;9.200;2023-03-11T02:11:05;9.20;26.40
418;DHT22;49;48.530;9.200;2023-03-11T02:13:34;8.80;25.30
418;DHT22;49;48.530;9.200;2023-03-11T02:16:02;8.60;26.20
418;DHT22;49;48.530;9.200;2023-03-11T02:18:30;8.30;27.90
418;DHT22;49;48.530;9.200;2023-03-11T02:21:05;8.40;29.70
418;DHT22;49;48.530;9.200;2023-03-11T02:23:38;8.70;28.50
418;DHT22;49;48.530;9.200;2023-03-11T02:26:12;8.80;25.20
418;DHT22;49;48.530;9.200;2023-03-11T02:28:43;9.10;28.10
418;DHT22;49;48.530;9.200;2023-03-11T02:31:13;9.40;28.30
418;DHT22;49;48.530;9.200;2023-03-11T02:33:43;9.20;25.40
418;DHT22;49;48.530;9.200;2023-03-11T02:36:29;9.00;23.00
418;DHT22;49;48.530;9.200;2023-03-11T02:38:56;9.10;25.40
418;DHT22;49;48.530;9.200;2023-03-11T02:41:23;9.00;27.30
418;DHT22;49;48.530;9.200;2023-03-11T02:43:52;9.20;25.70
418;DHT22;49;48.530;9.200;2023-03-11T02:46:20;9.00;28.20
418;DHT22;49;48.530;9.200;2023-03-11T02:48:47;9.20;31.50
418;DHT22;49;48.530;9.200;2023-03-11T02:51:14;9.30;25.80
418;DHT22;49;48.530;9.200;2023-03-11T02:53:45;9.00;21.40
418;DHT22;49;48.530;9.200;2023-03-11T02:56:13;8.50;26.60
418;DHT22;49;48.530;9.200;2023-03-11T02:58:39;8.60;28.00
418;DHT22;49;48.530;9.200;2023-03-11T03:01:08;8.80;25.30
418;DHT22;49;48.530;9.200;2023-03-11T03:03:35;9.20;25.50
418;DHT22;49;48.530;9.200;2023-03-11T03:06:02;9.10;23.30
418;DHT22;49;48.530;9.200;2023-03-11T03:08:29;8.90;26.10
418;DHT22;49;48.530;9.200;2023-03-11T03:10:56;8.70;26.80
418;DHT22;49;48.530;9.200;2023-03-11T03:13:24;8.90;29.70
418;DHT22;49;48.530;9.200;2023-03-11T03:15:51;9.00;24.90
418;DHT22;49;48.530;9.200;2023-03-11T03:18:19;9.30;31.20
418;DHT22;49;48.530;9.200;2023-03-11T03:20:46;9.20;25.60
418;DHT22;49;48.530;9.200;2023-03-11T03:23:13;9.00;24.80
418;DHT22;49;48.530;9.200;2023-03-11T03:25:41;8.90;28.70
418;DHT22;49;48.530;9.200;2023-03-11T03:28:08;8.90;27.70
418;DHT22;49;48.530;9.200;2023-03-11T03:30:36;8.80;24.80
418;DHT22;49;48.530;9.200;2023-03-11T03:33:04;8.80;29.30
418;DHT22;49;48.530;9.200;2023-03-11T03:35:32;8.90;25.10
418;DHT22;49;48.530;9.200;2023-03-11T03:38:00;8.20;21.60
418;DHT22;49;48.530;9.200;2023-03-11T03:40:27;7.50;24.70
418;DHT22;49;48.530;9.200;2023-03-11T03:42:54;7.00;27.80
418;DHT22;49;48.530;9.200;2023-03-11T03:45:21;7.10;27.10
418;DHT22;49;48.530;9.200;2023-03-11T03:47:48;7.20;31.30
418;DHT22;49;48.530;9.200;2023-03-11T03:50:15;7.90;46.80
418;DHT22;49;48.530;9.200;2023-03-11T03:52:43;8.10;32.60
418;DHT22;49;48.530;9.200;2023-03-11T03:55:10;8.10;28.60
418;DHT22;49;48.530;9.200;2023-03-11T03:57:37;8.00;28.60
418;DHT22;49;48.530;9.200;2023-03-11T04:00:05;8.10;28.80
418;DHT22;49;48.530;9.200;2023-03-11T04:02:34;8.00;28.70
418;DHT22;49;48.530;9.200;2023-03-11T04:05:01;8.30;26.70
418;DHT22;49;48.530;9.200;2023-03-11T04:07:28;8.00;29.70
418;DHT22;49;48.530;9.200;2023-03-11T04:09:57;8.10;29.20
418;DHT22;49;48.530;9.200;2023-03-11T04:12:24;7.90;26.90
418;DHT22;49;48.530;9.200;2023-03-11T04:14:51;7.60;29.40
418;DHT22;49;48.530;9.200;2023-03-11T04:17:20;7.40;25.20
418;DHT22;49;48.530;9.200;2023-03-11T04:19:47;7.20;30.50
418;DHT22;49;48.530;9.200;2023-03-11T04:22:14;7.50;29.00
418;DHT22;49;48.530;9.200;2023-03-11T04:24:41;7.60;25.50
418;DHT22;49;48.530;9.200;2023-03-11T04:27:10;7.90;33.90
418;DHT22;49;48.530;9.200;2023-03-11T04:29:37;8.10;32.00
418;DHT22;49;48.530;9.200;2023-03-11T04:32:04;8.50;32.80
418;DHT22;49;48.530;9.200;2023-03-11T04:34:31;8.70;34.10
418;DHT22;49;48.530;9.200;2023-03-11T04:36:58;8.90;33.40
418;DHT22;49;48.530;9.200;2023-03-11T04:39:25;9.00;23.80
418;DHT22;49;48.530;9.200;2023-03-11T04:41:52;9.20;27.90
418;DHT22;49;48.530;9.200;2023-03-11T04:44:21;9.50;29.10
418;DHT22;49;48.530;9.200;2023-03-11T04:46:48;9.60;20.50
418;DHT22;49;48.530;9.200;2023-03-11T04:49:15;10.00;31.10
418;DHT22;49;48.530;9.200;2023-03-11T04:51:42;10.30;32.70
418;DHT22;49;48.530;9.200;2023-03-11T04:54:09;10.60;28.60
418;DHT22;49;48.530;9.200;2023-03-11T04:56:36;9.70;20.40
418;DHT22;49;48.530;9.200;2023-03-11T04:59:03;9.50;23.30
418;DHT22;49;48.530;9.200;2023-03-11T05:01:32;9.20;28.60
418;DHT22;49;48.530;9.200;2023-03-11T05:03:58;8.60;21.90
418;DHT22;49;48.530;9.200;2023-03-11T05:06:25;8.30;30.60
418;DHT22;49;48.530;9.200;2023-03-11T05:08:53;8.20;25.80
418;DHT22;49;48.530;9.200;2023-03-11T05:11:20;8.70;34.10
418;DHT22;49;48.530;9.200;2023-03-11T05:13:47;9.20;32.20
418;DHT22;49;48.530;9.200;2023-03-11T05:16:14;9.30;29.60
418;DHT22;49;48.530;9.200;2023-03-11T05:18:43;9.30;31.00
418;DHT22;49;48.530;9.200;2023-03-11T05:21:09;9.00;28.20
418;DHT22;49;48.530;9.200;2023-03-11T05:23:36;9.10;26.90
418;DHT22;49;48.530;9.200;2023-03-11T05:26:04;9.30;29.60
418;DHT22;49;48.530;9.200;2023-03-11T05:28:31;9.10;23.10
418;DHT22;49;48.530;9.200;2023-03-11T05:30:59;9.10;24.30
418;DHT22;49;48.530;9.200;2023-03-11T05:33:26;8.80;17.90
418;DHT22;49;48.530;9.200;2023-03-11T05:36:04;8.60;30.30
418;DHT22;49;48.530;9.200;2023-03-11T05:38:31;8.30;20.80
418;DHT22;49;48.530;9.200;2023-03-11T05:40:58;8.40;33.20
418;DHT22;49;48.530;9.200;2023-03-11T05:43:25;8.50;29.20
418;DHT22;49;48.530;9.200;2023-03-11T05:45:54;8.40;27.50
418;DHT22;49;48.530;9.200;2023-03-11T05:48:21;8.40;21.60
418;DHT22;49;48.530;9.200;2023-03-11T05:50:48;8.40;22.70
418;DHT22;49;48.530;9.200;2023-03-11T05:53:18;8.70;22.80
418;DHT22;49;48.530;9.200;2023-03-11T05:55:45;8.90;27.20
418;DHT22;49;48.530;9.200;2023-03-11T05:58:20;8.80;20.50
418;DHT22;49;48.530;9.200;2023-03-11T06:00:47;9.20;34.00
418;DHT22;49;48.530;9.200;2023-03-11T06:03:14;9.60;26.90
418;DHT22;49;48.530;9.200;2023-03-11T06:05:44;9.70;24.10
418;DHT22;49;48.530;9.200;2023-03-11T06:08:11;9.70;31.70
418;DHT22;49;48.530;9.200;2023-03-11T06:10:39;9.40;22.30
418;DHT22;49;48.530;9.200;2023-03-11T06:13:06;9.60;22.50
418;DHT22;49;48.530;9.200;2023-03-11T06:15:34;9.40;22.10
418;DHT22;49;48.530;9.200;2023-03-11T06:18:01;9.30;18.20
418;DHT22;49;48.530;9.200;2023-03-11T06:20:28;8.80;17.00
418;DHT22;49;48.530;9.200;2023-03-11T06:22:55;8.70;25.20
418;DHT22;49;48.530;9.200;2023-03-11T06:25:23;9.30;25.40
418;DHT22;49;48.530;9.200;2023-03-11T06:27:51;9.00;24.10
418;DHT22;49;48.530;9.200;2023-03-11T06:30:19;9.20;25.50
418;DHT22;49;48.530;9.200;2023-03-11T06:32:46;8.80;22.90
418;DHT22;49;48.530;9.200;2023-03-11T06:35:13;9.20;24.60
418;DHT22;49;48.530;9.200;2023-03-11T06:37:40;9.00;20.90
418;DHT22;49;48.530;9.200;2023-03-11T06:40:09;8.80;20.10
418;DHT22;49;48.530;9.200;2023-03-11T06:42:36;8.40;18.00
418;DHT22;49;48.530;9.200;2023-03-11T06:45:06;8.20;17.90
418;DHT22;49;48.530;9.200;2023-03-11T06:47:33;7.90;18.70
418;DHT22;49;48.530;9.200;2023-03-11T06:50:00;7.90;20.50
418;DHT22;49;48.530;9.200;2023-03-11T06:52:31;8.30;25.60
418;DHT22;49;48.530;9.200;2023-03-11T06:54:58;9.30;21.40
418;DHT22;49;48.530;9.200;2023-03-11T06:57:28;10.50;15.90
418;DHT22;49;48.530;9.200;2023-03-11T06:59:55;11.60;14.70
418;DHT22;49;48.530;9.200;2023-03-11T07:02:23;12.20;14.00
418;DHT22;49;48.530;9.200;2023-03-11T07:04:50;13.30;12.90
418;DHT22;49;48.530;9.200;2023-03-11T07:07:17;14.10;10.30
418;DHT22;49;48.530;9.200;2023-03-11T07:09:45;14.90;9.70
418;DHT22;49;48.530;9.200;2023-03-11T07:12:12;15.40;8.60
418;DHT22;49;48.530;9.200;2023-03-11T07:14:40;16.10;9.10
418;DHT22;49;48.530;9.200;2023-03-11T07:17:07;16.30;7.60
418;DHT22;49;48.530;9.200;2023-03-11T07:19:35;16.30;7.90
418;DHT22;49;48.530;9.200;2023-03-11T07:22:02;16.40;6.80
418;DHT22;49;48.530;9.200;2023-03-11T07:24:29;15.60;8.70
418;DHT22;49;48.530;9.200;2023-03-11T07:26:56;15.00;8.40
418;DHT22;49;48.530;9.200;2023-03-11T07:29:22;14.20;10.10
418;DHT22;49;48.530;9.200;2023-03-11T07:31:49;13.40;9.50
418;DHT22;49;48.530;9.200;2023-03-11T07:34:17;12.90;9.30
418;DHT22;49;48.530;9.200;2023-03-11T07:36:46;12.50;10.30
418;DHT22;49;48.530;9.200;2023-03-11T07:39:15;12.10;10.90
418;DHT22;49;48.530;9.200;2023-03-11T07:41:42;11.50;10.50
418;DHT22;49;48.530;9.200;2023-03-11T07:44:11;11.60;10.50
418;DHT22;49;48.530;9.200;2023-03-11T07:46:38;11.40;12.30
418;DHT22;49;48.530;9.200;2023-03-11T07:49:05;11.80;13.80
418;DHT22;49;48.530;9.200;2023-03-11T07:51:35;11.70;10.20
418;DHT22;49;48.530;9.200;2023-03-11T07:54:08;11.50;10.30
418;DHT22;49;48.530;9.200;2023-03-11T07:56:35;10.90;12.40
418;DHT22;49;48.530;9.200;2023-03-11T07:59:03;10.90;13.00
418;DHT22;49;48.530;9.200;2023-03-11T08:01:31;10.80;12.80
418;DHT22;49;48.530;9.200;2023-03-11T08:04:02;10.60;11.10
418;DHT22;49;48.530;9.200;2023-03-11T08:06:31;10.50;11.40
418;DHT22;49;48.530;9.200;2023-03-11T08:08:59;10.60;11.60
418;DHT22;49;48.530;9.200;2023-03-11T08:11:29;10.70;12.70
418;DHT22;49;48.530;9.200;2023-03-11T08:13:55;10.70;11.50
418;DHT22;49;48.530;9.200;2023-03-11T08:16:24;10.60;11.20
418;DHT22;49;48.530;9.200;2023-03-11T08:18:52;11.10;13.30
418;DHT22;49;48.530;9.200;2023-03-11T08:21:21;11.10;12.60
418;DHT22;49;48.530;9.200;2023-03-11T08:23:49;11.00;10.80
418;DHT22;49;48.530;9.200;2023-03-11T08:26:17;10.90;11.60
418;DHT22;49;48.530;9.200;2023-03-11T08:28:49;10.10;13.00
418;DHT22;49;48.530;9.200;2023-03-11T08:31:19;10.60;15.20
418;DHT22;49;48.530;9.200;2023-03-11T08:33:48;11.70;15.50
418;DHT22;49;48.530;9.200;2023-03-11T08:36:19;13.20;9.50
418;DHT22;49;48.530;9.200;2023-03-11T08:38:46;13.90;8.40
418;DHT22;49;48.530;9.200;2023-03-11T08:41:14;13.90;8.10
418;DHT22;49;48.530;9.200;2023-03-11T08:43:45;14.20;6.90
418;DHT22;49;48.530;9.200;2023-03-11T08:46:18;14.30;7.10
418;DHT22;49;48.530;9.200;2023-03-11T08:48:46;14.10;6.60
418;DHT22;49;48.530;9.200;2023-03-11T08:51:13;13.30;7.20
418;DHT22;49;48.530;9.200;2023-03-11T08:53:41;12.80;7.10
418;DHT22;49;48.530;9.200;2023-03-11T08:56:09;12.20;7.00
418;DHT22;49;48.530;9.200;2023-03-11T08:58:38;11.80;7.90
418;DHT22;49;48.530;9.200;2023-03-11T09:01:06;11.10;8.90
418;DHT22;49;48.530;9.200;2023-03-11T09:03:38;10.20;9.50
418;DHT22;49;48.530;9.200;2023-03-11T09:06:07;10.20;11.20
418;DHT22;49;48.530;9.200;2023-03-11T09:08:34;10.70;11.50
418;DHT22;49;48.530;9.200;2023-03-11T09:11:01;10.60;10.50
418;DHT22;49;48.530;9.200;2023-03-11T09:13:30;10.50;11.00
418;DHT22;49;48.530;9.200;2023-03-11T09:15:57;10.80;9.90
418;DHT22;49;48.530;9.200;2023-03-11T09:18:24;10.90;10.30
418;DHT22;49;48.530;9.200;2023-03-11T09:20:53;11.10;9.50
418;DHT22;49;48.530;9.200;2023-03-11T09:23:22;11.00;8.90
418;DHT22;49;48.530;9.200;2023-03-11T09:25:49;11.00;9.70
418;DHT22;49;48.530;9.200;2023-03-11T09:28:16;11.20;11.10
418;DHT22;49;48.530;9.200;2023-03-11T09:30:43;11.10;10.70
418;DHT22;49;48.530;9.200;2023-03-11T09:33:10;10.90;10.40
418;DHT22;49;48.530;9.200;2023-03-11T09:35:37;10.40;9.70
418;DHT22;49;48.530;9.200;2023-03-11T09:38:06;10.10;9.60
418;DHT22;49;48.530;9.200;2023-03-11T09:40:45;10.00;9.30
418;DHT22;49;48.530;9.200;2023-03-11T09:43:24;10.20;9.80
418;DHT22;49;48.530;9.200;2023-03-11T09:45:59;10.60;9.90
418;DHT22;49;48.530;9.200;2023-03-11T09:48:32;10.60;10.50
418;DHT22;49;48.530;9.200;2023-03-11T09:51:06;11.20;22.60
418;DHT22;49;48.530;9.200;2023-03-11T09:53:43;11.90;10.30
418;DHT22;49;48.530;9.200;2023-03-11T09:56:12;12.10;9.00
418;DHT22;49;48.530;9.200;2023-03-11T09:58:42;12.20;9.10
418;DHT22;49;48.530;9.200;2023-03-11T10:01:15;12.30;6.50
418;DHT22;49;48.530;9.200;2023-03-11T10:03:43;11.80;6.80
418;DHT22;49;48.530;9.200;2023-03-11T10:06:15;11.60;7.90
418;DHT22;49;48.530;9.200;2023-03-11T10:08:46;11.80;8.20
418;DHT22;49;48.530;9.200;2023-03-11T10:11:23;11.60;8.20
418;DHT22;49;48.530;9.200;2023-03-11T10:14:05;11.70;8.10
418;DHT22;49;48.530;9.200;2023-03-11T10:16:42;11.80;8.10
418;DHT22;49;48.530;9.200;2023-03-11T10:19:20;12.40;8.70
418;DHT22;49;48.530;9.200;2023-03-11T10:21:56;12.60;7.80
418;DHT22;49;48.530;9.200;2023-03-11T10:24:38;12.70;6.80
418;DHT22;49;48.530;9.200;2023-03-11T10:27:10;12.90;6.20
418;DHT22;49;48.530;9.200;2023-03-11T10:29:47;12.60;5.30
418;DHT22;49;48.530;9.200;2023-03-11T10:32:21;11.90;5.40
418;DHT22;49;48.530;9.200;2023-03-11T10:34:55;12.10;6.60
418;DHT22;49;48.530;9.200;2023-03-11T10:37:26;12.40;6.50
418;DHT22;49;48.530;9.200;2023-03-11T10:39:57;12.20;8.40
418;DHT22;49;48.530;9.200;2023-03-11T10:42:31;12.20;5.90
418;DHT22;49;48.530;9.200;2023-03-11T10:45:00;12.50;14.70
418;DHT22;49;48.530;9.200;2023-03-11T10:47:28;12.40;6.50
418;DHT22;49;48.530;9.200;2023-03-11T10:49:55;12.50;9.90
418;DHT22;49;48.530;9.200;2023-03-11T10:52:22;12.30;7.70
418;DHT22;49;48.530;9.200;2023-03-11T10:55:00;12.70;7.60
418;DHT22;49;48.530;9.200;2023-03-11T10:57:31;12.70;10.80
418;DHT22;49;48.530;9.200;2023-03-11T10:59:59;13.10;8.90
418;DHT22;49;48.530;9.200;2023-03-11T11:02:28;12.10;6.30
418;DHT22;49;48.530;9.200;2023-03-11T11:05:24;11.70;6.10
418;DHT22;49;48.530;9.200;2023-03-11T11:08:02;11.50;6.50
418;DHT22;49;48.530;9.200;2023-03-11T11:10:31;11.60;6.90
418;DHT22;49;48.530;9.200;2023-03-11T11:12:59;11.90;12.30
418;DHT22;49;48.530;9.200;2023-03-11T11:15:30;11.90;6.50
418;DHT22;49;48.530;9.200;2023-03-11T11:17:59;10.80;8.20
418;DHT22;49;48.530;9.200;2023-03-11T11:20:28;10.20;9.90
418;DHT22;49;48.530;9.200;2023-03-11T11:22:56;10.40;8.80
418;DHT22;49;48.530;9.200;2023-03-11T11:25:27;10.70;9.80
418;DHT22;49;48.530;9.200;2023-03-11T11:27:57;11.00;9.50
418;DHT22;49;48.530;9.200;2023-03-11T11:30:25;11.10;7.80
418;DHT22;49;48.530;9.200;2023-03-11T11:32:52;11.50;9.10
418;DHT22;49;48.530;9.200;2023-03-11T11:35:21;11.80;9.90
418;DHT22;49;48.530;9.200;2023-03-11T11:37:50;11.80;7.60
418;DHT22;49;48.530;9.200;2023-03-11T11:40:26;12.30;8.30
418;DHT22;49;48.530;9.200;2023-03-11T11:42:58;12.10;6.30
418;DHT22;49;48.530;9.200;2023-03-11T11:45:31;12.20;10.30
418;DHT22;49;48.530;9.200;2023-03-11T11:48:05;11.70;6.10
418;DHT22;49;48.530;9.200;2023-03-11T11:50:34;11.30;6.90
418;DHT22;49;48.530;9.200;2023-03-11T11:53:12;11.10;7.80
418;DHT22;49;48.530;9.200;2023-03-11T11:55:45;11.10;8.00
418;DHT22;49;48.530;9.200;2023-03-11T11:58:14;11.10;7.10
418;DHT22;49;48.530;9.200;2023-03-11T12:00:49;11.30;7.10
418;DHT22;49;48.530;9.200;2023-03-11T12:06:13;11.40;6.90
418;DHT22;49;48.530;9.200;2023-03-11T12:08:47;11.80;9.50
418;DHT22;49;48.530;9.200;2023-03-11T12:11:23;12.10;7.50
418;DHT22;49;48.530;9.200;2023-03-11T12:13:58;12.00;6.30
418;DHT22;49;48.530;9.200;2023-03-11T12:16:35;11.50;6.80
418;DHT22;49;48.530;9.200;2023-03-11T12:19:16;11.30;11.00
418;DHT22;49;48.530;9.200;2023-03-11T12:21:59;11.90;12.30
418;DHT22;49;48.530;9.200;2023-03-11T12:24:42;12.60;10.00
418;DHT22;49;48.530;9.200;2023-03-11T12:27:17;12.50;12.60
418;DHT22;49;48.530;9.200;2023-03-11T12:29:48;12.80;6.80
418;DHT22;49;48.530;9.200;2023-03-11T12:32:23;13.00;6.80
418;DHT22;49;48.530;9.200;2023-03-11T12:34:52;12.40;7.40
418;DHT22;49;48.530;9.200;2023-03-11T12:37:20;12.70;7.50
418;DHT22;49;48.530;9.200;2023-03-11T12:39:48;12.70;6.80
418;DHT22;49;48.530;9.200;2023-03-11T12:42:17;12.30;8.80
418;DHT22;49;48.530;9.200;2023-03-11T12:44:48;11.70;11.70
418;DHT22;49;48.530;9.200;2023-03-11T12:47:21;11.70;7.20
418;DHT22;49;48.530;9.200;2023-03-11T12:49:50;11.60;6.90
418;DHT22;49;48.530;9.200;2023-03-11T12:52:29;11.30;9.20
418;DHT22;49;48.530;9.200;2023-03-11T12:55:31;11.20;6.70
418;DHT22;49;48.530;9.200;2023-03-11T13:01:14;11.80;5.30
418;DHT22;49;48.530;9.200;2023-03-11T13:03:51;12.00;9.50
418;DHT22;49;48.530;9.200;2023-03-11T13:09:13;11.30;9.40
418;DHT22;49;48.530;9.200;2023-03-11T13:11:44;11.80;6.00
418;DHT22;49;48.530;9.200;2023-03-11T13:14:29;12.30;4.70
418;DHT22;49;48.530;9.200;2023-03-11T13:17:26;12.70;4.20
418;DHT22;49;48.530;9.200;2023-03-11T13:19:55;12.60;4.70
418;DHT22;49;48.530;9.200;2023-03-11T13:22:43;12.40;8.80
418;DHT22;49;48.530;9.200;2023-03-11T13:25:34;12.50;3.20
418;DHT22;49;48.530;9.200;2023-03-11T13:28:30;11.80;5.30
418;DHT22;49;48.530;9.200;2023-03-11T13:31:13;11.90;11.50
418;DHT22;49;48.530;9.200;2023-03-11T13:33:48;12.30;6.90
418;DHT22;49;48.530;9.200;2023-03-11T13:36:40;12.50;4.00
418;DHT22;49;48.530;9.200;2023-03-11T13:39:30;12.70;3.90
418;DHT22;49;48.530;9.200;2023-03-11T13:42:02;12.80;6.80
418;DHT22;49;48.530;9.200;2023-03-11T13:44:34;13.20;4.20
418;DHT22;49;48.530;9.200;2023-03-11T13:47:04;13.20;9.50
418;DHT22;49;48.530;9.200;2023-03-11T13:49:38;13.10;9.20
418;DHT22;49;48.530;9.200;2023-03-11T13:52:13;12.90;3.10
418;DHT22;49;48.530;9.200;2023-03-11T13:54:44;12.90;4.20
418;DHT22;49;48.530;9.200;2023-03-11T13:57:21;13.10;8.70
418;DHT22;49;48.530;9.200;2023-03-11T13:59:53;13.00;8.80
418;DHT22;49;48.530;9.200;2023-03-11T14:02:22;13.00;5.80
418;DHT22;49;48.530;9.200;2023-03-11T14:04:54;12.90;8.40
418;DHT22;49;48.530;9.200;2023-03-11T14:07:28;13.00;3.20
418;DHT22;49;48.530;9.200;2023-03-11T14:10:24;12.90;3.20
418;DHT22;49;48.530;9.200;2023-03-11T14:12:55;12.80;6.80
418;DHT22;49;48.530;9.200;2023-03-11T14:15:36;12.80;3.80
418;DHT22;49;48.530;9.200;2023-03-11T14:21:13;12.80;3.50
418;DHT22;49;48.530;9.200;2023-03-11T14:23:42;12.90;4.90
418;DHT22;49;48.530;9.200;2023-03-11T14:26:13;12.60;3.60
418;DHT22;49;48.530;9.200;2023-03-11T14:28:42;12.70;6.80
418;DHT22;49;48.530;9.200;2023-03-11T14:31:21;13.00;5.10
418;DHT22;49;48.530;9.200;2023-03-11T14:33:54;12.30;3.20
418;DHT22;49;48.530;9.200;2023-03-11T14:36:22;12.40;7.60
418;DHT22;49;48.530;9.200;2023-03-11T14:38:49;13.10;5.60
418;DHT22;49;48.530;9.200;2023-03-11T14:41:16;13.20;2.50
418;DHT22;49;48.530;9.200;2023-03-11T14:43:46;13.40;10.90
418;DHT22;49;48.530;9.200;2023-03-11T14:46:19;13.30;3.70
418;DHT22;49;48.530;9.200;2023-03-11T14:48:47;13.40;4.50
418;DHT22;49;48.530;9.200;2023-03-11T14:51:18;13.50;5.70
418;DHT22;49;48.530;9.200;2023-03-11T14:53:54;13.70;11.70
418;DHT22;49;48.530;9.200;2023-03-11T14:56:24;13.90;3.40
418;DHT22;49;48.530;9.200;2023-03-11T14:58:59;13.90;5.60
418;DHT22;49;48.530;9.200;2023-03-11T15:01:34;14.00;6.60
418;DHT22;49;48.530;9.200;2023-03-11T15:04:08;13.90;3.40
418;DHT22;49;48.530;9.200;2023-03-11T15:06:38;13.70;8.30
418;DHT22;49;48.530;9.200;2023-03-11T15:09:10;13.90;9.00
418;DHT22;49;48.530;9.200;2023-03-11T15:11:45;13.90;4.30
418;DHT22;49;48.530;9.200;2023-03-11T15:14:19;13.70;7.50
418;DHT22;49;48.530;9.200;2023-03-11T15:16:47;13.80;2.30
418;DHT22;49;48.530;9.200;2023-03-11T15:19:29;13.90;3.90
418;DHT22;49;48.530;9.200;2023-03-11T15:22:04;14.10;8.60
418;DHT22;49;48.530;9.200;2023-03-11T15:24:33;14.00;5.00
418;DHT22;49;48.530;9.200;2023-03-11T15:27:02;13.80;4.60
418;DHT22;49;48.530;9.200;2023-03-11T15:29:30;13.90;4.00
418;DHT22;49;48.530;9.200;2023-03-11T15:31:58;13.70;3.20
418;DHT22;49;48.530;9.200;2023-03-11T15:34:28;13.70;3.40
418;DHT22;49;48.530;9.200;2023-03-11T15:37:02;13.70;4.20
418;DHT22;49;48.530;9.200;2023-03-11T15:39:43;13.60;4.50
418;DHT22;49;48.530;9.200;2023-03-11T15:42:24;13.70;4.00
418;DHT22;49;48.530;9.200;2023-03-11T15:45:10;13.50;5.50
418;DHT22;49;48.530;9.200;2023-03-11T15:47:39;13.40;3.80
418;DHT22;49;48.530;9.200;2023-03-11T15:50:20;13.60;5.40
418;DHT22;49;48.530;9.200;2023-03-11T15:52:49;13.50;2.40
418;DHT22;49;48.530;9.200;2023-03-11T15:55:17;13.10;2.60
418;DHT22;49;48.530;9.200;2023-03-11T15:57:46;12.70;2.90
418;DHT22;49;48.530;9.200;2023-03-11T16:00:15;12.70;3.80
418;DHT22;49;48.530;9.200;2023-03-11T16:02:44;12.70;3.70
418;DHT22;49;48.530;9.200;2023-03-11T16:05:13;12.80;3.60
418;DHT22;49;48.530;9.200;2023-03-11T16:07:40;12.70;3.80
418;DHT22;49;48.530;9.200;2023-03-11T16:10:08;12.60;13.40
418;DHT22;49;48.530;9.200;2023-03-11T16:12:37;12.70;3.80
418;DHT22;49;48.530;9.200;2023-03-11T16:15:18;12.40;4.00
418;DHT22;49;48.530;9.200;2023-03-11T16:17:46;12.20;4.30
418;DHT22;49;48.530;9.200;2023-03-11T16:20:16;11.90;5.50
418;DHT22;49;48.530;9.200;2023-03-11T16:22:42;11.40;5.90
418;DHT22;49;48.530;9.200;2023-03-11T16:25:17;11.00;6.60
418;DHT22;49;48.530;9.200;2023-03-11T16:27:46;10.30;7.50
418;DHT22;49;48.530;9.200;2023-03-11T16:30:14;10.00;8.50
418;DHT22;49;48.530;9.200;2023-03-11T16:32:41;9.70;10.10
418;DHT22;49;48.530;9.200;2023-03-11T16:35:08;9.50;11.50
418;DHT22;49;48.530;9.200;2023-03-11T16:37:36;9.40;10.80
418;DHT22;49;48.530;9.200;2023-03-11T16:40:04;9.10;11.00
418;DHT22;49;48.530;9.200;2023-03-11T16:42:33;8.90;11.30
418;DHT22;49;48.530;9.200;2023-03-11T16:45:01;8.70;11.60
418;DHT22;49;48.530;9.200;2023-03-11T16:47:28;8.50;12.30
418;DHT22;49;48.530;9.200;2023-03-11T16:49:57;8.70;12.40
418;DHT22;49;48.530;9.200;2023-03-11T16:52:24;8.50;12.30
418;DHT22;49;48.530;9.200;2023-03-11T16:54:51;8.60;12.80
418;DHT22;49;48.530;9.200;2023-03-11T16:57:18;8.50;12.80
418;DHT22;49;48.530;9.200;2023-03-11T16:59:46;8.40;12.70
418;DHT22;49;48.530;9.200;2023-03-11T17:02:15;8.20;13.10
418;DHT22;49;48.530;9.200;2023-03-11T17:04:42;8.10;13.60
418;DHT22;49;48.530;9.200;2023-03-11T17:07:09;8.20;14.20
418;DHT22;49;48.530;9.200;2023-03-11T17:09:36;8.20;14.50
418;DHT22;49;48.530;9.200;2023-03-11T17:12:05;8.50;13.50
418;DHT22;49;48.530;9.200;2023-03-11T17:14:32;8.60;14.00
418;DHT22;49;48.530;9.200;2023-03-11T17:16:59;8.50;13.30
418;DHT22;49;48.530;9.200;2023-03-11T17:19:29;8.20;13.70
418;DHT22;49;48.530;9.200;2023-03-11T17:21:56;8.20;13.80
418;DHT22;49;48.530;9.200;2023-03-11T17:24:23;7.90;14.60
418;DHT22;49;48.530;9.200;2023-03-11T17:26:50;8.20;14.50
418;DHT22;49;48.530;9.200;2023-03-11T17:29:20;8.10;14.30
418;DHT22;49;48.530;9.200;2023-03-11T17:31:47;8.30;14.40
418;DHT22;49;48.530;9.200;2023-03-11T17:34:14;8.10;14.50
418;DHT22;49;48.530;9.200;2023-03-11T17:36:43;7.90;15.20